sensor_id;sensor_type;location;lat;lon;timestamp;P1;durP1;ratioP1;P2;durP2;ratioP2
15776;SDS011;7989;51.198;6.676;2024-02-21T00:01:27;20.70;;;11.60;;
15776;SDS011;7989;51.198;6.676;2024-02-21T00:03:54;17.10;;;10.85;;
15776;SDS011;7989;51.198;6.676;2024-02-21T00:06:20;16.40;;;10.68;;
15776;SDS011;7989;51.198;6.676;2024-02-21T00:08:47;16.10;;;10.75;;
15776;SDS011;7989;51.198;6.676;2024-02-21T00:11:14;18.80;;;11.30;;
15776;SDS011;7989;51.198;6.676;2024-02-21T00:13:41;17.20;;;10.70;;
15776;SDS011;7989;51.198;6.676;2024-02-21T00:16:09;22.95;;;12.15;;
15776;SDS011;7989;51.198;6.676;2024-02-21T00:18:36;16.10;;;10.25;;
15776;SDS011;7989;51.198;6.676;2024-02-21T00:21:03;16.90;;;10.77;;
15776;SDS011;7989;51.198;6.676;2024-02-21T00:23:30;15.98;;;10.35;;
15776;SDS011;7989;51.198;6.676;2024-02-21T00:25:57;19.98;;;11.27;;
15776;SDS011;7989;51.198;6.676;2024-02-21T00:28:24;16.38;;;10.45;;
15776;SDS011;7989;51.198;6.676;2024-02-21T00:30:50;21.83;;;12.02;;
15776;SDS011;7989;51.198;6.676;2024-02-21T00:33:19;19.60;;;11.35;;
15776;SDS011;7989;51.198;6.676;2024-02-21T00:35:46;20.10;;;9.98;;
15776;SDS011;7989;51.198;6.676;2024-02-21T00:38:13;21.05;;;11.88;;
15776;SDS011;7989;51.198;6.676;2024-02-21T00:40:40;20.08;;;11.07;;
15776;SDS011;7989;51.198;6.676;2024-02-21T00:43:07;16.80;;;10.90;;
15776;SDS011;7989;51.198;6.676;2024-02-21T00:45:34;16.48;;;10.50;;
15776;SDS011;7989;51.198;6.676;2024-02-21T00:48:01;19.02;;;11.13;;
15776;SDS011;7989;51.198;6.676;2024-02-21T00:50:29;19.00;;;10.73;;
15776;SDS011;7989;51.198;6.676;2024-02-21T00:52:56;16.83;;;10.23;;
15776;SDS011;7989;51.198;6.676;2024-02-21T00:55:22;22.20;;;11.43;;
15776;SDS011;7989;51.198;6.676;2024-02-21T00:57:48;18.58;;;10.82;;
15776;SDS011;7989;51.198;6.676;2024-02-21T01:00:15;23.13;;;11.70;;
15776;SDS011;7989;51.198;6.676;2024-02-21T01:02:43;21.88;;;11.25;;
15776;SDS011;7989;51.198;6.676;2024-02-21T01:05:10;18.70;;;10.13;;
15776;SDS011;7989;51.198;6.676;2024-02-21T01:07:38;18.77;;;10.63;;
15776;SDS011;7989;51.198;6.676;2024-02-21T01:10:05;19.33;;;10.68;;
15776;SDS011;7989;51.198;6.676;2024-02-21T01:12:33;21.27;;;10.85;;
15776;SDS011;7989;51.198;6.676;2024-02-21T01:14:59;19.02;;;10.88;;
15776;SDS011;7989;51.198;6.676;2024-02-21T01:17:26;15.50;;;10.25;;
15776;SDS011;7989;51.198;6.676;2024-02-21T01:19:53;18.17;;;11.40;;
15776;SDS011;7989;51.198;6.676;2024-02-21T01:22:20;21.02;;;11.15;;
15776;SDS011;7989;51.198;6.676;2024-02-21T01:24:48;21.25;;;10.75;;
15776;SDS011;7989;51.198;6.676;2024-02-21T01:27:15;17.17;;;9.55;;
15776;SDS011;7989;51.198;6.676;2024-02-21T01:29:41;15.13;;;10.32;;
15776;SDS011;7989;51.198;6.676;2024-02-21T01:32:08;16.30;;;9.88;;
15776;SDS011;7989;51.198;6.676;2024-02-21T01:34:35;21.55;;;9.98;;
15776;SDS011;7989;51.198;6.676;2024-02-21T01:37:02;18.35;;;10.38;;
15776;SDS011;7989;51.198;6.676;2024-02-21T01:39:29;18.02;;;10.57;;
15776;SDS011;7989;51.198;6.676;2024-02-21T01:41:57;18.30;;;10.45;;
15776;SDS011;7989;51.198;6.676;2024-02-21T01:44:24;18.20;;;9.90;;
15776;SDS011;7989;51.198;6.676;2024-02-21T01:46:52;13.02;;;10.00;;
15776;SDS011;7989;51.198;6.676;2024-02-21T01:49:19;14.68;;;9.48;;
15776;SDS011;7989;51.198;6.676;2024-02-21T01:51:46;15.80;;;9.15;;
15776;SDS011;7989;51.198;6.676;2024-02-21T01:54:13;18.08;;;10.60;;
15776;SDS011;7989;51.198;6.676;2024-02-21T01:56:42;20.77;;;10.05;;
15776;SDS011;7989;51.198;6.676;2024-02-21T01:59:10;17.05;;;10.35;;
15776;SDS011;7989;51.198;6.676;2024-02-21T02:01:39;20.38;;;9.20;;
15776;SDS011;7989;51.198;6.676;2024-02-21T02:04:06;16.75;;;9.00;;
15776;SDS011;7989;51.198;6.676;2024-02-21T02:06:34;17.25;;;9.05;;
15776;SDS011;7989;51.198;6.676;2024-02-21T02:09:01;20.08;;;10.32;;
15776;SDS011;7989;51.198;6.676;2024-02-21T02:11:28;16.83;;;8.93;;
15776;SDS011;7989;51.198;6.676;2024-02-21T02:13:55;16.58;;;9.07;;
15776;SDS011;7989;51.198;6.676;2024-02-21T02:16:23;14.85;;;9.23;;
15776;SDS011;7989;51.198;6.676;2024-02-21T02:18:50;18.67;;;10.05;;
15776;SDS011;7989;51.198;6.676;2024-02-21T02:21:22;13.75;;;9.27;;
15776;SDS011;7989;51.198;6.676;2024-02-21T02:23:53;16.67;;;9.20;;
15776;SDS011;7989;51.198;6.676;2024-02-21T02:26:20;13.90;;;8.52;;
15776;SDS011;7989;51.198;6.676;2024-02-21T02:28:47;17.30;;;9.23;;
15776;SDS011;7989;51.198;6.676;2024-02-21T02:31:14;17.63;;;9.82;;
15776;SDS011;7989;51.198;6.676;2024-02-21T02:33:42;19.35;;;9.77;;
15776;SDS011;7989;51.198;6.676;2024-02-21T02:36:09;16.13;;;9.82;;
15776;SDS011;7989;51.198;6.676;2024-02-21T02:38:36;18.75;;;9.73;;
15776;SDS011;7989;51.198;6.676;2024-02-21T02:41:04;15.48;;;9.15;;
15776;SDS011;7989;51.198;6.676;2024-02-21T02:43:31;15.23;;;9.27;;
15776;SDS011;7989;51.198;6.676;2024-02-21T02:45:58;17.80;;;10.25;;
15776;SDS011;7989;51.198;6.676;2024-02-21T02:48:25;15.23;;;9.05;;
15776;SDS011;7989;51.198;6.676;2024-02-21T02:50:51;13.98;;;9.45;;
15776;SDS011;7989;51.198;6.676;2024-02-21T02:53:18;18.05;;;9.13;;
15776;SDS011;7989;51.198;6.676;2024-02-21T02:55:45;17.20;;;9.77;;
15776;SDS011;7989;51.198;6.676;2024-02-21T02:58:13;18.25;;;9.82;;
15776;SDS011;7989;51.198;6.676;2024-02-21T03:00:40;19.30;;;9.75;;
15776;SDS011;7989;51.198;6.676;2024-02-21T03:03:07;18.05;;;8.95;;
15776;SDS011;7989;51.198;6.676;2024-02-21T03:05:34;15.88;;;9.00;;
15776;SDS011;7989;51.198;6.676;2024-02-21T03:08:01;18.15;;;9.77;;
15776;SDS011;7989;51.198;6.676;2024-02-21T03:10:31;13.70;;;8.77;;
15776;SDS011;7989;51.198;6.676;2024-02-21T03:12:58;19.50;;;9.63;;
15776;SDS011;7989;51.198;6.676;2024-02-21T03:15:27;17.75;;;9.25;;
15776;SDS011;7989;51.198;6.676;2024-02-21T03:17:53;15.57;;;9.70;;
15776;SDS011;7989;51.198;6.676;2024-02-21T03:20:20;17.55;;;8.80;;
15776;SDS011;7989;51.198;6.676;2024-02-21T03:22:47;14.80;;;8.85;;
15776;SDS011;7989;51.198;6.676;2024-02-21T03:25:14;13.35;;;8.80;;
15776;SDS011;7989;51.198;6.676;2024-02-21T03:27:40;14.88;;;8.85;;
15776;SDS011;7989;51.198;6.676;2024-02-21T03:30:08;14.52;;;8.93;;
15776;SDS011;7989;51.198;6.676;2024-02-21T03:32:37;14.20;;;8.25;;
15776;SDS011;7989;51.198;6.676;2024-02-21T03:35:04;20.23;;;8.95;;
15776;SDS011;7989;51.198;6.676;2024-02-21T03:37:31;17.60;;;8.48;;
15776;SDS011;7989;51.198;6.676;2024-02-21T03:39:58;14.45;;;8.05;;
15776;SDS011;7989;51.198;6.676;2024-02-21T03:42:24;17.75;;;8.07;;
15776;SDS011;7989;51.198;6.676;2024-02-21T03:44:54;11.90;;;8.35;;
15776;SDS011;7989;51.198;6.676;2024-02-21T03:47:21;15.00;;;8.13;;
15776;SDS011;7989;51.198;6.676;2024-02-21T03:49:49;13.45;;;7.88;;
15776;SDS011;7989;51.198;6.676;2024-02-21T03:52:16;13.95;;;8.32;;
15776;SDS011;7989;51.198;6.676;2024-02-21T03:54:43;13.73;;;8.05;;
15776;SDS011;7989;51.198;6.676;2024-02-21T03:57:09;12.02;;;7.18;;
15776;SDS011;7989;51.198;6.676;2024-02-21T03:59:36;14.98;;;7.88;;
15776;SDS011;7989;51.198;6.676;2024-02-21T04:02:05;13.60;;;7.70;;
15776;SDS011;7989;51.198;6.676;2024-02-21T04:04:33;13.07;;;7.07;;
15776;SDS011;7989;51.198;6.676;2024-02-21T04:07:01;18.35;;;8.60;;
15776;SDS011;7989;51.198;6.676;2024-02-21T04:09:31;14.93;;;7.10;;
15776;SDS011;7989;51.198;6.676;2024-02-21T04:11:58;9.68;;;6.90;;
15776;SDS011;7989;51.198;6.676;2024-02-21T04:14:25;10.10;;;6.43;;
15776;SDS011;7989;51.198;6.676;2024-02-21T04:16:52;13.55;;;7.50;;
15776;SDS011;7989;51.198;6.676;2024-02-21T04:19:19;14.77;;;7.93;;
15776;SDS011;7989;51.198;6.676;2024-02-21T04:21:45;11.75;;;7.05;;
15776;SDS011;7989;51.198;6.676;2024-02-21T04:24:14;17.30;;;7.30;;
15776;SDS011;7989;51.198;6.676;2024-02-21T04:26:40;14.45;;;7.55;;
15776;SDS011;7989;51.198;6.676;2024-02-21T04:29:08;14.07;;;8.05;;
15776;SDS011;7989;51.198;6.676;2024-02-21T04:31:35;14.85;;;7.75;;
15776;SDS011;7989;51.198;6.676;2024-02-21T04:34:02;12.65;;;7.20;;
15776;SDS011;7989;51.198;6.676;2024-02-21T04:36:29;13.70;;;8.00;;
15776;SDS011;7989;51.198;6.676;2024-02-21T04:38:55;14.05;;;6.95;;
15776;SDS011;7989;51.198;6.676;2024-02-21T04:41:24;13.15;;;6.72;;
15776;SDS011;7989;51.198;6.676;2024-02-21T04:43:51;11.80;;;7.15;;
15776;SDS011;7989;51.198;6.676;2024-02-21T04:46:17;13.63;;;7.10;;
15776;SDS011;7989;51.198;6.676;2024-02-21T04:48:45;11.90;;;7.35;;
15776;SDS011;7989;51.198;6.676;2024-02-21T04:51:11;15.63;;;6.97;;
15776;SDS011;7989;51.198;6.676;2024-02-21T04:53:38;15.70;;;7.15;;
15776;SDS011;7989;51.198;6.676;2024-02-21T04:56:05;15.15;;;7.88;;
15776;SDS011;7989;51.198;6.676;2024-02-21T04:58:37;13.45;;;7.57;;
15776;SDS011;7989;51.198;6.676;2024-02-21T05:01:04;10.90;;;6.90;;
15776;SDS011;7989;51.198;6.676;2024-02-21T05:03:31;16.17;;;8.32;;
15776;SDS011;7989;51.198;6.676;2024-02-21T05:05:58;17.25;;;7.07;;
15776;SDS011;7989;51.198;6.676;2024-02-21T05:08:25;14.95;;;7.55;;
15776;SDS011;7989;51.198;6.676;2024-02-21T05:10:52;17.15;;;7.75;;
15776;SDS011;7989;51.198;6.676;2024-02-21T05:13:19;12.75;;;7.35;;
15776;SDS011;7989;51.198;6.676;2024-02-21T05:15:47;13.70;;;7.45;;
15776;SDS011;7989;51.198;6.676;2024-02-21T05:18:14;16.27;;;7.45;;
15776;SDS011;7989;51.198;6.676;2024-02-21T05:20:40;12.50;;;6.60;;
15776;SDS011;7989;51.198;6.676;2024-02-21T05:23:07;13.45;;;6.63;;
15776;SDS011;7989;51.198;6.676;2024-02-21T05:25:34;13.75;;;6.82;;
15776;SDS011;7989;51.198;6.676;2024-02-21T05:28:01;13.32;;;6.88;;
15776;SDS011;7989;51.198;6.676;2024-02-21T05:30:28;12.32;;;6.47;;
15776;SDS011;7989;51.198;6.676;2024-02-21T05:32:56;11.18;;;6.72;;
15776;SDS011;7989;51.198;6.676;2024-02-21T05:35:26;14.48;;;7.40;;
15776;SDS011;7989;51.198;6.676;2024-02-21T05:37:53;10.30;;;7.32;;
15776;SDS011;7989;51.198;6.676;2024-02-21T05:40:20;14.55;;;6.90;;
15776;SDS011;7989;51.198;6.676;2024-02-21T05:42:47;18.17;;;6.93;;
15776;SDS011;7989;51.198;6.676;2024-02-21T05:45:13;13.55;;;7.47;;
15776;SDS011;7989;51.198;6.676;2024-02-21T05:47:40;13.27;;;6.90;;
15776;SDS011;7989;51.198;6.676;2024-02-21T05:50:09;11.60;;;6.43;;
15776;SDS011;7989;51.198;6.676;2024-02-21T05:52:36;10.52;;;6.22;;
15776;SDS011;7989;51.198;6.676;2024-02-21T05:55:03;10.95;;;6.00;;
15776;SDS011;7989;51.198;6.676;2024-02-21T05:57:30;15.20;;;7.13;;
15776;SDS011;7989;51.198;6.676;2024-02-21T05:59:57;9.80;;;6.43;;
15776;SDS011;7989;51.198;6.676;2024-02-21T06:02:25;10.93;;;6.50;;
15776;SDS011;7989;51.198;6.676;2024-02-21T06:04:51;11.68;;;6.32;;
15776;SDS011;7989;51.198;6.676;2024-02-21T06:07:20;12.23;;;6.55;;
15776;SDS011;7989;51.198;6.676;2024-02-21T06:09:46;9.05;;;6.28;;
15776;SDS011;7989;51.198;6.676;2024-02-21T06:12:13;12.05;;;6.55;;
15776;SDS011;7989;51.198;6.676;2024-02-21T06:14:40;11.82;;;6.25;;
15776;SDS011;7989;51.198;6.676;2024-02-21T06:17:07;11.88;;;6.07;;
15776;SDS011;7989;51.198;6.676;2024-02-21T06:19:34;10.13;;;5.65;;
15776;SDS011;7989;51.198;6.676;2024-02-21T06:22:00;7.55;;;5.45;;
15776;SDS011;7989;51.198;6.676;2024-02-21T06:24:34;13.98;;;6.15;;
15776;SDS011;7989;51.198;6.676;2024-02-21T06:27:01;9.98;;;5.93;;
15776;SDS011;7989;51.198;6.676;2024-02-21T06:29:28;8.75;;;5.95;;
15776;SDS011;7989;51.198;6.676;2024-02-21T06:31:55;9.07;;;5.32;;
15776;SDS011;7989;51.198;6.676;2024-02-21T06:34:21;14.93;;;7.55;;
15776;SDS011;7989;51.198;6.676;2024-02-21T06:36:49;17.27;;;9.73;;
15776;SDS011;7989;51.198;6.676;2024-02-21T06:39:16;11.88;;;6.93;;
15776;SDS011;7989;51.198;6.676;2024-02-21T06:41:44;11.02;;;5.93;;
15776;SDS011;7989;51.198;6.676;2024-02-21T06:44:11;9.70;;;6.22;;
15776;SDS011;7989;51.198;6.676;2024-02-21T06:46:38;11.65;;;6.10;;
15776;SDS011;7989;51.198;6.676;2024-02-21T06:49:05;10.20;;;6.60;;
15776;SDS011;7989;51.198;6.676;2024-02-21T06:51:32;11.20;;;5.47;;
15776;SDS011;7989;51.198;6.676;2024-02-21T06:53:59;10.98;;;5.93;;
15776;SDS011;7989;51.198;6.676;2024-02-21T06:56:27;12.25;;;6.20;;
15776;SDS011;7989;51.198;6.676;2024-02-21T06:58:55;10.00;;;5.78;;
15776;SDS011;7989;51.198;6.676;2024-02-21T07:01:22;14.25;;;6.20;;
15776;SDS011;7989;51.198;6.676;2024-02-21T07:03:49;10.63;;;5.85;;
15776;SDS011;7989;51.198;6.676;2024-02-21T07:06:16;10.68;;;5.65;;
15776;SDS011;7989;51.198;6.676;2024-02-21T07:08:43;9.60;;;5.63;;
15776;SDS011;7989;51.198;6.676;2024-02-21T07:11:10;8.68;;;4.95;;
15776;SDS011;7989;51.198;6.676;2024-02-21T07:13:37;8.68;;;5.28;;
15776;SDS011;7989;51.198;6.676;2024-02-21T07:16:06;10.23;;;5.30;;
15776;SDS011;7989;51.198;6.676;2024-02-21T07:18:33;10.25;;;5.05;;
15776;SDS011;7989;51.198;6.676;2024-02-21T07:21:00;10.07;;;5.20;;
15776;SDS011;7989;51.198;6.676;2024-02-21T07:23:26;12.48;;;5.78;;
15776;SDS011;7989;51.198;6.676;2024-02-21T07:25:53;8.98;;;5.20;;
15776;SDS011;7989;51.198;6.676;2024-02-21T07:28:20;13.35;;;8.52;;
15776;SDS011;7989;51.198;6.676;2024-02-21T07:30:47;10.60;;;5.72;;
15776;SDS011;7989;51.198;6.676;2024-02-21T07:33:15;11.65;;;6.22;;
15776;SDS011;7989;51.198;6.676;2024-02-21T07:35:41;19.15;;;6.70;;
15776;SDS011;7989;51.198;6.676;2024-02-21T07:38:10;9.82;;;5.15;;
15776;SDS011;7989;51.198;6.676;2024-02-21T07:40:37;11.25;;;5.45;;
15776;SDS011;7989;51.198;6.676;2024-02-21T07:43:04;12.63;;;6.30;;
15776;SDS011;7989;51.198;6.676;2024-02-21T07:45:31;10.25;;;4.85;;
15776;SDS011;7989;51.198;6.676;2024-02-21T07:47:57;12.48;;;4.80;;
15776;SDS011;7989;51.198;6.676;2024-02-21T07:50:26;13.52;;;5.43;;
15776;SDS011;7989;51.198;6.676;2024-02-21T07:52:52;14.45;;;5.78;;
15776;SDS011;7989;51.198;6.676;2024-02-21T07:55:19;12.38;;;5.70;;
15776;SDS011;7989;51.198;6.676;2024-02-21T07:57:46;9.20;;;5.18;;
15776;SDS011;7989;51.198;6.676;2024-02-21T08:00:13;13.73;;;5.93;;
15776;SDS011;7989;51.198;6.676;2024-02-21T08:02:44;11.55;;;4.43;;
15776;SDS011;7989;51.198;6.676;2024-02-21T08:05:11;6.70;;;4.10;;
15776;SDS011;7989;51.198;6.676;2024-02-21T08:07:39;11.40;;;4.90;;
15776;SDS011;7989;51.198;6.676;2024-02-21T08:10:07;12.48;;;4.82;;
15776;SDS011;7989;51.198;6.676;2024-02-21T08:12:34;8.32;;;4.93;;
15776;SDS011;7989;51.198;6.676;2024-02-21T08:15:01;8.48;;;4.60;;
15776;SDS011;7989;51.198;6.676;2024-02-21T08:17:29;9.93;;;4.97;;
15776;SDS011;7989;51.198;6.676;2024-02-21T08:19:56;9.95;;;4.80;;
15776;SDS011;7989;51.198;6.676;2024-02-21T08:22:23;11.27;;;5.20;;
15776;SDS011;7989;51.198;6.676;2024-02-21T08:24:51;12.73;;;6.07;;
15776;SDS011;7989;51.198;6.676;2024-02-21T08:27:18;12.85;;;6.35;;
15776;SDS011;7989;51.198;6.676;2024-02-21T08:29:45;15.50;;;5.72;;
15776;SDS011;7989;51.198;6.676;2024-02-21T08:32:12;11.80;;;5.22;;
15776;SDS011;7989;51.198;6.676;2024-02-21T08:34:38;11.85;;;5.47;;
15776;SDS011;7989;51.198;6.676;2024-02-21T08:37:05;8.02;;;5.03;;
15776;SDS011;7989;51.198;6.676;2024-02-21T08:39:33;11.57;;;5.85;;
15776;SDS011;7989;51.198;6.676;2024-02-21T08:42:01;8.40;;;4.35;;
15776;SDS011;7989;51.198;6.676;2024-02-21T08:44:28;10.30;;;5.50;;
15776;SDS011;7989;51.198;6.676;2024-02-21T08:46:55;8.57;;;4.80;;
15776;SDS011;7989;51.198;6.676;2024-02-21T08:49:21;9.73;;;5.53;;
15776;SDS011;7989;51.198;6.676;2024-02-21T08:51:48;6.47;;;4.35;;
15776;SDS011;7989;51.198;6.676;2024-02-21T08:54:15;10.95;;;4.82;;
15776;SDS011;7989;51.198;6.676;2024-02-21T08:56:43;14.27;;;4.15;;
15776;SDS011;7989;51.198;6.676;2024-02-21T08:59:11;9.10;;;4.10;;
15776;SDS011;7989;51.198;6.676;2024-02-21T09:01:40;7.20;;;3.08;;
15776;SDS011;7989;51.198;6.676;2024-02-21T09:04:08;8.32;;;3.92;;
15776;SDS011;7989;51.198;6.676;2024-02-21T09:06:35;9.75;;;4.10;;
15776;SDS011;7989;51.198;6.676;2024-02-21T09:09:04;12.98;;;4.68;;
15776;SDS011;7989;51.198;6.676;2024-02-21T09:11:33;7.88;;;3.50;;
15776;SDS011;7989;51.198;6.676;2024-02-21T09:14:00;6.78;;;4.03;;
15776;SDS011;7989;51.198;6.676;2024-02-21T09:16:30;9.07;;;4.53;;
15776;SDS011;7989;51.198;6.676;2024-02-21T09:18:57;10.13;;;4.78;;
15776;SDS011;7989;51.198;6.676;2024-02-21T09:21:24;7.88;;;3.75;;
15776;SDS011;7989;51.198;6.676;2024-02-21T09:23:50;7.18;;;4.85;;
15776;SDS011;7989;51.198;6.676;2024-02-21T09:26:17;11.40;;;4.88;;
15776;SDS011;7989;51.198;6.676;2024-02-21T09:28:44;8.00;;;4.68;;
15776;SDS011;7989;51.198;6.676;2024-02-21T09:31:11;9.85;;;4.00;;
15776;SDS011;7989;51.198;6.676;2024-02-21T09:33:39;7.72;;;4.15;;
15776;SDS011;7989;51.198;6.676;2024-02-21T09:36:06;5.72;;;3.83;;
15776;SDS011;7989;51.198;6.676;2024-02-21T09:38:33;10.55;;;4.45;;
15776;SDS011;7989;51.198;6.676;2024-02-21T09:41:00;6.43;;;3.70;;
15776;SDS011;7989;51.198;6.676;2024-02-21T09:43:37;6.35;;;3.45;;
15776;SDS011;7989;51.198;6.676;2024-02-21T09:46:07;6.00;;;3.80;;
15776;SDS011;7989;51.198;6.676;2024-02-21T09:48:42;10.55;;;3.75;;
15776;SDS011;7989;51.198;6.676;2024-02-21T09:51:20;11.05;;;4.43;;
15776;SDS011;7989;51.198;6.676;2024-02-21T09:53:47;6.15;;;3.67;;
15776;SDS011;7989;51.198;6.676;2024-02-21T09:56:16;6.25;;;3.92;;
15776;SDS011;7989;51.198;6.676;2024-02-21T09:58:43;7.88;;;3.90;;
15776;SDS011;7989;51.198;6.676;2024-02-21T10:01:10;8.95;;;3.45;;
15776;SDS011;7989;51.198;6.676;2024-02-21T10:03:37;5.18;;;2.95;;
15776;SDS011;7989;51.198;6.676;2024-02-21T10:06:06;8.98;;;3.72;;
15776;SDS011;7989;51.198;6.676;2024-02-21T10:08:32;10.30;;;4.30;;
15776;SDS011;7989;51.198;6.676;2024-02-21T10:10:59;5.63;;;3.45;;
15776;SDS011;7989;51.198;6.676;2024-02-21T10:13:28;9.35;;;3.38;;
15776;SDS011;7989;51.198;6.676;2024-02-21T10:16:02;7.97;;;3.38;;
15776;SDS011;7989;51.198;6.676;2024-02-21T10:18:30;5.50;;;3.00;;
15776;SDS011;7989;51.198;6.676;2024-02-21T10:21:00;6.47;;;3.28;;
15776;SDS011;7989;51.198;6.676;2024-02-21T10:23:29;5.05;;;3.00;;
15776;SDS011;7989;51.198;6.676;2024-02-21T10:26:07;6.80;;;3.25;;
15776;SDS011;7989;51.198;6.676;2024-02-21T10:28:34;6.05;;;3.05;;
15776;SDS011;7989;51.198;6.676;2024-02-21T10:31:01;6.45;;;2.70;;
15776;SDS011;7989;51.198;6.676;2024-02-21T10:33:27;5.07;;;2.72;;
15776;SDS011;7989;51.198;6.676;2024-02-21T10:36:05;9.98;;;3.50;;
15776;SDS011;7989;51.198;6.676;2024-02-21T10:38:35;7.57;;;3.35;;
15776;SDS011;7989;51.198;6.676;2024-02-21T10:41:03;7.63;;;3.20;;
15776;SDS011;7989;51.198;6.676;2024-02-21T10:43:30;5.50;;;2.97;;
15776;SDS011;7989;51.198;6.676;2024-02-21T10:46:04;7.57;;;2.95;;
15776;SDS011;7989;51.198;6.676;2024-02-21T10:48:33;8.00;;;2.97;;
15776;SDS011;7989;51.198;6.676;2024-02-21T10:51:08;6.88;;;3.40;;
15776;SDS011;7989;51.198;6.676;2024-02-21T10:53:44;7.60;;;3.22;;
15776;SDS011;7989;51.198;6.676;2024-02-21T10:56:18;4.70;;;2.97;;
15776;SDS011;7989;51.198;6.676;2024-02-21T10:58:49;4.45;;;2.83;;
15776;SDS011;7989;51.198;6.676;2024-02-21T11:01:17;6.72;;;2.53;;
15776;SDS011;7989;51.198;6.676;2024-02-21T11:03:45;6.88;;;3.25;;
15776;SDS011;7989;51.198;6.676;2024-02-21T11:06:14;5.68;;;2.83;;
15776;SDS011;7989;51.198;6.676;2024-02-21T11:08:44;5.35;;;3.30;;
15776;SDS011;7989;51.198;6.676;2024-02-21T11:11:12;8.50;;;3.67;;
15776;SDS011;7989;51.198;6.676;2024-02-21T11:13:42;6.03;;;3.40;;
15776;SDS011;7989;51.198;6.676;2024-02-21T11:16:11;6.55;;;3.35;;
15776;SDS011;7989;51.198;6.676;2024-02-21T11:18:38;5.40;;;3.38;;
15776;SDS011;7989;51.198;6.676;2024-02-21T11:21:05;5.80;;;3.33;;
15776;SDS011;7989;51.198;6.676;2024-02-21T11:23:32;5.38;;;3.30;;
15776;SDS011;7989;51.198;6.676;2024-02-21T11:26:07;9.57;;;3.45;;
15776;SDS011;7989;51.198;6.676;2024-02-21T11:28:34;7.65;;;3.40;;
15776;SDS011;7989;51.198;6.676;2024-02-21T11:31:09;7.22;;;3.88;;
15776;SDS011;7989;51.198;6.676;2024-02-21T11:33:39;7.20;;;3.63;;
15776;SDS011;7989;51.198;6.676;2024-02-21T11:36:06;7.72;;;4.18;;
15776;SDS011;7989;51.198;6.676;2024-02-21T11:38:33;8.18;;;3.45;;
15776;SDS011;7989;51.198;6.676;2024-02-21T11:40:59;7.10;;;3.50;;
15776;SDS011;7989;51.198;6.676;2024-02-21T11:43:28;6.35;;;3.22;;
15776;SDS011;7989;51.198;6.676;2024-02-21T11:45:58;7.22;;;2.97;;
15776;SDS011;7989;51.198;6.676;2024-02-21T11:48:28;7.35;;;3.70;;
15776;SDS011;7989;51.198;6.676;2024-02-21T11:50:57;6.88;;;3.42;;
15776;SDS011;7989;51.198;6.676;2024-02-21T11:53:25;7.18;;;3.90;;
15776;SDS011;7989;51.198;6.676;2024-02-21T11:55:56;9.65;;;3.40;;
15776;SDS011;7989;51.198;6.676;2024-02-21T11:58:23;7.63;;;3.22;;
15776;SDS011;7989;51.198;6.676;2024-02-21T12:00:51;6.32;;;3.58;;
15776;SDS011;7989;51.198;6.676;2024-02-21T12:03:18;6.45;;;3.17;;
15776;SDS011;7989;51.198;6.676;2024-02-21T12:05:45;4.82;;;2.90;;
15776;SDS011;7989;51.198;6.676;2024-02-21T12:08:12;9.48;;;5.45;;
15776;SDS011;7989;51.198;6.676;2024-02-21T12:10:39;7.57;;;3.60;;
15776;SDS011;7989;51.198;6.676;2024-02-21T12:13:09;7.88;;;3.20;;
15776;SDS011;7989;51.198;6.676;2024-02-21T12:15:38;5.80;;;3.10;;
15776;SDS011;7989;51.198;6.676;2024-02-21T12:18:07;7.20;;;2.80;;
15776;SDS011;7989;51.198;6.676;2024-02-21T12:20:36;6.95;;;3.70;;
15776;SDS011;7989;51.198;6.676;2024-02-21T12:23:02;6.07;;;2.95;;
15776;SDS011;7989;51.198;6.676;2024-02-21T12:25:29;5.32;;;2.65;;
15776;SDS011;7989;51.198;6.676;2024-02-21T12:27:56;4.63;;;3.10;;
15776;SDS011;7989;51.198;6.676;2024-02-21T12:30:25;8.18;;;3.42;;
15776;SDS011;7989;51.198;6.676;2024-02-21T12:32:51;8.27;;;3.13;;
15776;SDS011;7989;51.198;6.676;2024-02-21T12:35:19;5.07;;;2.50;;
15776;SDS011;7989;51.198;6.676;2024-02-21T12:37:46;4.85;;;2.50;;
15776;SDS011;7989;51.198;6.676;2024-02-21T12:40:13;4.25;;;2.47;;
15776;SDS011;7989;51.198;6.676;2024-02-21T12:42:40;6.65;;;3.03;;
15776;SDS011;7989;51.198;6.676;2024-02-21T12:45:07;6.07;;;2.88;;
15776;SDS011;7989;51.198;6.676;2024-02-21T12:47:34;6.13;;;2.63;;
15776;SDS011;7989;51.198;6.676;2024-02-21T12:50:01;5.88;;;3.15;;
15776;SDS011;7989;51.198;6.676;2024-02-21T12:52:33;5.85;;;2.88;;
15776;SDS011;7989;51.198;6.676;2024-02-21T12:54:59;6.78;;;2.90;;
15776;SDS011;7989;51.198;6.676;2024-02-21T12:57:26;6.65;;;3.40;;
15776;SDS011;7989;51.198;6.676;2024-02-21T12:59:53;3.72;;;2.33;;
15776;SDS011;7989;51.198;6.676;2024-02-21T13:02:20;8.20;;;2.28;;
15776;SDS011;7989;51.198;6.676;2024-02-21T13:04:47;6.65;;;3.47;;
15776;SDS011;7989;51.198;6.676;2024-02-21T13:07:13;7.40;;;3.25;;
15776;SDS011;7989;51.198;6.676;2024-02-21T13:09:41;5.18;;;2.78;;
15776;SDS011;7989;51.198;6.676;2024-02-21T13:12:08;5.45;;;2.92;;
15776;SDS011;7989;51.198;6.676;2024-02-21T13:14:35;6.80;;;3.17;;
15776;SDS011;7989;51.198;6.676;2024-02-21T13:17:04;6.38;;;2.80;;
15776;SDS011;7989;51.198;6.676;2024-02-21T13:19:31;6.18;;;3.03;;
15776;SDS011;7989;51.198;6.676;2024-02-21T13:21:58;5.07;;;3.05;;
15776;SDS011;7989;51.198;6.676;2024-02-21T13:24:24;5.03;;;2.63;;
15776;SDS011;7989;51.198;6.676;2024-02-21T13:26:53;5.18;;;3.03;;
15776;SDS011;7989;51.198;6.676;2024-02-21T13:29:19;8.20;;;3.17;;
15776;SDS011;7989;51.198;6.676;2024-02-21T13:31:46;6.95;;;2.92;;
15776;SDS011;7989;51.198;6.676;2024-02-21T13:34:14;7.05;;;3.30;;
15776;SDS011;7989;51.198;6.676;2024-02-21T13:36:42;5.97;;;3.40;;
15776;SDS011;7989;51.198;6.676;2024-02-21T13:39:09;5.57;;;2.90;;
15776;SDS011;7989;51.198;6.676;2024-02-21T13:41:38;6.20;;;3.17;;
15776;SDS011;7989;51.198;6.676;2024-02-21T13:44:06;5.50;;;3.28;;
15776;SDS011;7989;51.198;6.676;2024-02-21T13:46:34;10.10;;;3.10;;
15776;SDS011;7989;51.198;6.676;2024-02-21T13:49:02;6.45;;;3.38;;
15776;SDS011;7989;51.198;6.676;2024-02-21T13:51:31;6.03;;;2.80;;
15776;SDS011;7989;51.198;6.676;2024-02-21T13:53:59;7.63;;;3.20;;
15776;SDS011;7989;51.198;6.676;2024-02-21T13:56:25;8.27;;;3.33;;
15776;SDS011;7989;51.198;6.676;2024-02-21T13:58:52;7.25;;;3.50;;
15776;SDS011;7989;51.198;6.676;2024-02-21T14:01:21;6.20;;;2.70;;
15776;SDS011;7989;51.198;6.676;2024-02-21T14:03:47;4.95;;;2.97;;
15776;SDS011;7989;51.198;6.676;2024-02-21T14:06:14;6.32;;;3.10;;
15776;SDS011;7989;51.198;6.676;2024-02-21T14:08:42;5.93;;;3.22;;
15776;SDS011;7989;51.198;6.676;2024-02-21T14:11:09;8.18;;;3.00;;
15776;SDS011;7989;51.198;6.676;2024-02-21T14:13:35;5.05;;;2.50;;
15776;SDS011;7989;51.198;6.676;2024-02-21T14:16:02;6.63;;;2.67;;
15776;SDS011;7989;51.198;6.676;2024-02-21T14:18:37;5.55;;;2.60;;
15776;SDS011;7989;51.198;6.676;2024-02-21T14:21:06;8.25;;;3.28;;
15776;SDS011;7989;51.198;6.676;2024-02-21T14:23:32;6.80;;;2.83;;
15776;SDS011;7989;51.198;6.676;2024-02-21T14:25:59;9.27;;;3.40;;
15776;SDS011;7989;51.198;6.676;2024-02-21T14:28:26;4.93;;;2.63;;
15776;SDS011;7989;51.198;6.676;2024-02-21T14:30:53;7.85;;;2.88;;
15776;SDS011;7989;51.198;6.676;2024-02-21T14:33:22;7.35;;;2.95;;
15776;SDS011;7989;51.198;6.676;2024-02-21T14:35:50;7.25;;;3.13;;
15776;SDS011;7989;51.198;6.676;2024-02-21T14:38:17;5.60;;;3.17;;
15776;SDS011;7989;51.198;6.676;2024-02-21T14:40:45;8.07;;;3.22;;
15776;SDS011;7989;51.198;6.676;2024-02-21T14:43:11;7.70;;;3.20;;
15776;SDS011;7989;51.198;6.676;2024-02-21T14:45:38;6.95;;;3.22;;
15776;SDS011;7989;51.198;6.676;2024-02-21T14:48:06;4.28;;;2.47;;
15776;SDS011;7989;51.198;6.676;2024-02-21T14:50:33;6.00;;;3.00;;
15776;SDS011;7989;51.198;6.676;2024-02-21T14:53:01;6.10;;;2.75;;
15776;SDS011;7989;51.198;6.676;2024-02-21T14:55:28;10.07;;;5.25;;